Time;durP1;ratioP1;P1;durP2;ratioP2;P2;SDS_P1;SDS_P2;PMS_P1;PMS_P2;Temp;Humidity;BMP_temperature;BMP_pressure;BME280_temperature;BME280_humidity;BME280_pressure;Samples;Min_cycle;Max_cycle;Signal;HPM_P1;HPM_P2
2023/07/04 00:01:19;;;;;;;0.93;0.93;;;;;;;21.91;100.00;95227.31;5073390;28;20445;-56
2023/07/04 00:03:52;;;;;;;3.63;0.40;;;;;;;22.41;100.00;95302.38;5072778;28;20516;-56
2023/07/04 00:06:21;;;;;;;0.70;0.47;;;;;;;22.38;100.00;95298.47;5073266;28;20448;-56
2023/07/04 00:08:51;;;;;;;0.90;0.90;;;;;;;22.24;100.00;95287.25;5072777;28;20469;-56
2023/07/04 00:11:20;;;;;;;0.50;0.40;;;;;;;22.18;100.00;95301.34;5073688;28;20468;-55
2023/07/04 00:13:50;;;;;;;0.50;0.50;;;;;;;21.94;100.00;95302.19;5071936;28;20477;-56
2023/07/04 00:16:20;;;;;;;0.80;0.40;;;;;;;22.13;100.00;95305.88;5073210;28;20442;-55
2023/07/04 00:18:48;;;;;;;0.87;0.83;;;;;;;22.24;100.00;95308.84;5047537;28;20438;-56
2023/07/04 00:21:18;;;;;;;0.70;0.50;;;;;;;22.22;100.00;95307.63;5072962;28;20528;-55
2023/07/04 00:23:52;;;;;;;0.50;0.30;;;;;;;22.23;100.00;95303.78;5073339;28;20888;-55
2023/07/04 00:26:25;;;;;;;1.07;0.50;;;;;;;22.01;100.00;95305.13;5072911;28;20455;-55
2023/07/04 00:28:54;;;;;;;1.20;1.13;;;;;;;21.78;100.00;95312.88;5072771;28;20442;-56
2023/07/04 00:31:24;;;;;;;0.73;0.73;;;;;;;21.51;100.00;95306.28;5070133;28;20488;-55
2023/07/04 00:33:54;;;;;;;1.20;0.60;;;;;;;21.39;100.00;95308.97;5064061;28;20502;-55
2023/07/04 00:36:23;;;;;;;1.20;1.10;;;;;;;21.54;100.00;95302.13;5072764;28;20441;-56
2023/07/04 00:38:56;;;;;;;1.00;1.00;;;;;;;21.77;100.00;95313.22;5073395;28;20437;-55
2023/07/04 00:41:29;;;;;;;0.73;0.73;;;;;;;21.70;100.00;95302.22;5071927;28;20444;-55
2023/07/04 00:44:00;;;;;;;1.03;0.40;;;;;;;21.06;100.00;95313.69;5072735;28;20568;-56
2023/07/04 00:46:39;;;;;;;0.80;0.67;;;;;;;20.97;100.00;95306.78;5072453;28;20453;-56
2023/07/04 00:49:19;;;;;;;2.93;0.73;;;;;;;21.23;100.00;95299.97;5072337;28;20433;-56
2023/07/04 00:52:00;;;;;;;0.70;0.60;;;;;;;21.23;100.00;95305.38;5073251;28;20453;-56
2023/07/04 00:54:34;;;;;;;1.80;0.80;;;;;;;21.23;100.00;95294.59;5071920;28;20875;-56
2023/07/04 00:57:06;;;;;;;0.63;0.60;;;;;;;21.51;100.00;95284.69;5072580;28;20518;-56
2023/07/04 00:59:43;;;;;;;0.50;0.40;;;;;;;21.74;100.00;95317.38;5072690;28;20441;-56
2023/07/04 01:02:13;;;;;;;1.07;0.50;;;;;;;21.79;100.00;95319.06;5072715;28;20437;-56
2023/07/04 01:04:42;;;;;;;0.70;0.70;;;;;;;21.81;100.00;95319.50;5072258;28;20477;-56
2023/07/04 01:07:19;;;;;;;0.70;0.43;;;;;;;21.80;100.00;95313.34;5071916;28;20465;-56
2023/07/04 01:09:55;;;;;;;0.50;0.40;;;;;;;21.75;100.00;95310.88;5072048;28;20449;-56
2023/07/04 01:12:29;;;;;;;0.60;0.47;;;;;;;21.71;100.00;95314.56;5072594;28;20442;-56
2023/07/04 01:14:59;;;;;;;0.40;0.30;;;;;;;21.68;100.00;95313.31;5071163;28;20468;-56
2023/07/04 01:17:29;;;;;;;0.50;0.40;;;;;;;21.73;100.00;95298.84;5072897;28;20826;-56
2023/07/04 01:19:59;;;;;;;0.60;0.43;;;;;;;21.76;100.00;95309.72;5071910;28;20953;-56
2023/07/04 01:22:35;;;;;;;0.80;0.70;;;;;;;21.40;100.00;95313.22;5071109;28;20961;-56
2023/07/04 01:25:12;;;;;;;0.60;0.50;;;;;;;21.39;100.00;95308.97;5071072;28;20438;-56
2023/07/04 01:27:42;;;;;;;0.50;0.40;;;;;;;21.61;100.00;95313.13;5071187;28;20440;-56
2023/07/04 01:30:12;;;;;;;1.03;0.50;;;;;;;21.50;100.00;95288.50;5071141;28;20803;-56
2023/07/04 01:32:43;;;;;;;0.50;0.30;;;;;;;21.14;100.00;95220.34;5070850;28;20520;-56
2023/07/04 01:35:13;;;;;;;0.50;0.33;;;;;;;21.64;100.00;95306.25;5071215;28;20503;-56
2023/07/04 01:37:42;;;;;;;1.00;1.00;;;;;;;21.46;100.00;95313.81;5072060;28;20446;-56
2023/07/04 01:40:12;;;;;;;0.80;0.30;;;;;;;21.52;100.00;95299.75;5071623;28;20540;-56
2023/07/04 01:42:42;;;;;;;0.50;0.50;;;;;;;21.53;100.00;95312.13;5072203;28;20451;-56
2023/07/04 01:45:11;;;;;;;0.50;0.30;;;;;;;21.31;100.00;95291.00;5071039;28;20556;-56
2023/07/04 01:47:40;;;;;;;0.60;0.60;;;;;;;21.27;100.00;95317.06;5071511;28;20517;-56
2023/07/04 01:50:10;;;;;;;0.70;0.60;;;;;;;21.19;100.00;95323.34;5071166;28;20448;-57
2023/07/04 01:52:40;;;;;;;0.40;0.30;;;;;;;21.20;100.00;95327.59;5071568;28;20448;-56
2023/07/04 01:55:11;;;;;;;0.50;0.40;;;;;;;21.32;100.00;95324.94;5071697;28;20445;-56
2023/07/04 01:57:40;;;;;;;0.63;0.63;;;;;;;21.40;100.00;95328.66;5070751;28;20441;-56
2023/07/04 02:00:12;;;;;;;0.43;0.30;;;;;;;21.26;100.00;95330.88;5070378;28;20475;-56
2023/07/04 02:02:42;;;;;;;1.37;0.47;;;;;;;21.34;100.00;95329.97;5071011;28;20477;-56
2023/07/04 02:05:10;;;;;;;0.80;0.40;;;;;;;21.07;100.00;95330.63;5070701;28;20473;-57
2023/07/04 02:07:39;;;;;;;0.40;0.30;;;;;;;21.10;100.00;95333.44;5071221;28;20444;-56
2023/07/04 02:10:08;;;;;;;2.10;0.60;;;;;;;21.21;100.00;95328.41;5070761;28;20488;-56
2023/07/04 02:12:36;;;;;;;1.37;0.60;;;;;;;21.31;100.00;95331.44;5071890;28;20433;-56
2023/07/04 02:15:07;;;;;;;1.27;1.17;;;;;;;21.33;100.00;95337.28;5070064;28;20465;-55
2023/07/04 02:17:37;;;;;;;0.50;0.40;;;;;;;21.33;100.00;95337.28;5070995;28;20838;-56
2023/07/04 02:20:07;;;;;;;0.70;0.50;;;;;;;21.35;100.00;95335.03;5070594;28;20824;-56
2023/07/04 02:22:35;;;;;;;0.50;0.50;;;;;;;21.28;100.00;95329.41;5070733;28;20441;-57
2023/07/04 02:25:04;;;;;;;2.40;0.40;;;;;;;21.28;100.00;95337.50;5069725;28;20469;-57
2023/07/04 02:27:32;;;;;;;1.13;0.63;;;;;;;21.22;100.00;95328.09;5070747;28;20437;-57
2023/07/04 02:30:00;;;;;;;1.10;0.60;;;;;;;21.26;100.00;95337.06;5071133;28;20473;-57
2023/07/04 02:32:28;;;;;;;0.50;0.40;;;;;;;21.20;100.00;95333.00;5071853;28;20438;-57
2023/07/04 02:34:58;;;;;;;0.50;0.40;;;;;;;21.22;100.00;95338.06;5044771;28;20504;-57
2023/07/04 02:37:27;;;;;;;0.60;0.40;;;;;;;21.12;100.00;95347.38;5070998;28;20442;-57
2023/07/04 02:39:55;;;;;;;0.97;0.97;;;;;;;21.10;100.00;95346.16;5070546;28;20433;-57
2023/07/04 02:42:24;;;;;;;0.50;0.30;;;;;;;21.13;100.00;95342.75;5069981;28;20453;-57
2023/07/04 02:44:52;;;;;;;0.60;0.30;;;;;;;21.16;100.00;95344.78;5070492;28;20508;-57
2023/07/04 02:47:25;;;;;;;0.60;0.40;;;;;;;21.12;100.00;95330.41;5056977;28;21023;-58
2023/07/04 02:49:54;;;;;;;1.93;0.47;;;;;;;21.08;100.00;95329.50;5071022;28;20437;-58
2023/07/04 02:52:25;;;;;;;1.03;0.70;;;;;;;21.06;100.00;95332.53;5070494;28;20461;-58
2023/07/04 02:54:53;;;;;;;0.50;0.47;;;;;;;20.92;100.00;95340.13;5070165;28;20438;-58
2023/07/04 02:57:23;;;;;;;1.47;0.50;;;;;;;21.02;100.00;95336.22;5070140;28;20452;-58
2023/07/04 02:59:52;;;;;;;1.97;0.40;;;;;;;21.06;100.00;95331.75;5070814;28;20445;-58
2023/07/04 03:02:21;;;;;;;1.47;0.80;;;;;;;21.03;100.00;95338.56;5069368;28;20990;-58
2023/07/04 03:04:51;;;;;;;0.80;0.80;;;;;;;20.94;100.00;95335.19;5070892;28;20503;-58
2023/07/04 03:07:20;;;;;;;1.57;0.40;;;;;;;20.55;100.00;95335.75;5069364;28;21000;-58
2023/07/04 03:09:50;;;;;;;0.70;0.63;;;;;;;20.06;100.00;95340.88;5071321;28;20532;-58
2023/07/04 03:12:18;;;;;;;0.80;0.67;;;;;;;20.07;100.00;95347.84;5070874;28;20446;-58
2023/07/04 03:14:46;;;;;;;0.50;0.50;;;;;;;20.29;100.00;95356.72;5069430;28;20469;-58
2023/07/04 03:17:15;;;;;;;0.60;0.40;;;;;;;19.91;100.00;95349.53;5070543;28;20434;-59
2023/07/04 03:19:43;;;;;;;0.50;0.40;;;;;;;20.01;100.00;95351.81;5070295;28;20832;-57
2023/07/04 03:22:12;;;;;;;0.60;0.50;;;;;;;19.92;100.00;95345.72;5070856;28;20484;-57
2023/07/04 03:24:42;;;;;;;0.60;0.33;;;;;;;20.13;100.00;95346.53;5069899;28;20468;-56
2023/07/04 03:27:11;;;;;;;0.50;0.40;;;;;;;20.45;100.00;95349.59;5070860;28;20433;-56
2023/07/04 03:29:40;;;;;;;0.60;0.43;;;;;;;20.67;100.00;95349.25;5069727;28;20453;-56
2023/07/04 03:32:08;;;;;;;0.80;0.50;;;;;;;20.83;100.00;95363.66;5070013;28;21062;-51
2023/07/04 03:34:37;;;;;;;0.60;0.50;;;;;;;21.14;100.00;95355.13;5070129;28;20510;-51
2023/07/04 03:37:05;;;;;;;1.17;1.07;;;;;;;21.23;100.00;95353.09;5072146;28;21007;-51
2023/07/04 03:39:33;;;;;;;0.67;0.67;;;;;;;21.36;100.00;95352.78;5074392;28;20487;-50
2023/07/04 03:42:02;;;;;;;0.90;0.90;;;;;;;21.46;100.00;95360.44;5073113;28;20906;-51
2023/07/04 03:44:31;;;;;;;1.13;0.50;;;;;;;21.45;100.00;95363.47;5073094;28;20477;-50
2023/07/04 03:47:00;;;;;;;0.70;0.70;;;;;;;21.30;100.00;95364.91;5074173;28;20441;-53
2023/07/04 03:49:28;;;;;;;2.37;0.80;;;;;;;21.39;100.00;95362.91;5072731;28;20476;-52
2023/07/04 03:51:56;;;;;;;0.60;0.40;;;;;;;21.56;100.00;95366.50;5073796;28;20945;-52
2023/07/04 03:54:25;;;;;;;1.10;1.00;;;;;;;21.10;100.00;95373.84;5074299;28;20441;-52
2023/07/04 03:56:53;;;;;;;1.30;0.97;;;;;;;21.57;100.00;95368.88;5073474;28;20437;-52
2023/07/04 03:59:22;;;;;;;1.00;0.60;;;;;;;21.69;100.00;95370.78;5073501;28;20612;-53
2023/07/04 04:01:51;;;;;;;0.50;0.50;;;;;;;21.80;100.00;95377.28;5073722;28;20438;-50
2023/07/04 04:04:20;;;;;;;0.93;0.83;;;;;;;21.83;100.00;95374.69;5072562;28;20469;-52
2023/07/04 04:06:51;;;;;;;0.60;0.50;;;;;;;21.87;100.00;95380.25;5073757;28;20446;-52
2023/07/04 04:09:19;;;;;;;0.70;0.60;;;;;;;21.84;100.00;95372.78;5073894;28;20465;-53
2023/07/04 04:11:48;;;;;;;1.70;0.80;;;;;;;21.82;100.00;95375.03;5073349;28;20445;-52
2023/07/04 04:14:16;;;;;;;2.40;0.60;;;;;;;21.70;100.00;95366.97;5072363;28;20473;-53
2023/07/04 04:16:44;;;;;;;0.90;0.87;;;;;;;21.86;100.00;95378.66;5072994;28;20446;-52
2023/07/04 04:19:14;;;;;;;1.23;0.77;;;;;;;22.09;100.00;95379.75;5073193;28;20441;-53
2023/07/04 04:21:42;;;;;;;0.40;0.30;;;;;;;22.13;100.00;95359.84;5072374;28;20441;-53
2023/07/04 04:24:11;;;;;;;0.70;0.40;;;;;;;22.32;100.00;95380.03;5073087;28;20445;-53
2023/07/04 04:26:40;;;;;;;0.70;0.50;;;;;;;22.19;100.00;95367.72;5072956;28;20476;-53
2023/07/04 04:29:08;;;;;;;1.20;0.90;;;;;;;22.22;100.00;95378.59;5073622;28;20441;-53
2023/07/04 04:31:38;;;;;;;0.53;0.53;;;;;;;22.28;100.00;95377.25;5072861;28;20909;-53
2023/07/04 04:34:07;;;;;;;3.23;1.10;;;;;;;22.19;100.00;95384.69;5073212;28;20867;-53
2023/07/04 04:36:36;;;;;;;1.43;0.40;;;;;;;22.38;100.00;95376.78;5070821;28;20479;-53
2023/07/04 04:39:05;;;;;;;1.20;1.20;;;;;;;22.35;100.00;95377.47;5072420;28;20999;-53
2023/07/04 04:41:36;;;;;;;1.17;0.50;;;;;;;22.54;100.00;95385.72;5045911;28;20491;-52
2023/07/04 04:44:05;;;;;;;1.13;0.80;;;;;;;22.59;100.00;95385.47;5072434;28;20441;-52
2023/07/04 04:46:34;;;;;;;3.80;1.13;;;;;;;22.68;100.00;95385.38;5072250;28;21025;-53
2023/07/04 04:49:03;;;;;;;0.77;0.63;;;;;;;22.77;100.00;95386.78;5071361;28;20442;-52
2023/07/04 04:51:32;;;;;;;4.63;1.13;;;;;;;22.64;100.00;95387.94;5072087;28;20532;-53
2023/07/04 04:54:02;;;;;;;1.37;0.60;;;;;;;22.38;100.00;95387.56;5072758;28;20520;-53
2023/07/04 04:56:33;;;;;;;1.60;1.40;;;;;;;22.10;100.00;95332.75;5072989;28;20441;-53
2023/07/04 04:59:01;;;;;;;1.97;0.50;;;;;;;22.76;100.00;95379.03;5073398;28;20910;-54
2023/07/04 05:01:30;;;;;;;0.60;0.53;;;;;;;22.78;100.00;95387.56;5073163;28;20507;-53
2023/07/04 05:03:58;;;;;;;1.30;1.20;;;;;;;22.98;100.00;95388.50;5073046;28;20429;-54
2023/07/04 05:06:28;;;;;;;0.70;0.70;;;;;;;22.81;100.00;95348.25;5073215;28;20568;-54
2023/07/04 05:08:56;;;;;;;0.50;0.50;;;;;;;23.04;100.00;95387.91;5072485;28;20438;-53
2023/07/04 05:11:29;;;;;;;1.00;0.90;;;;;;;22.97;100.00;95376.13;5073242;28;20438;-53
2023/07/04 05:13:57;;;;;;;0.60;0.60;;;;;;;22.87;100.00;95365.81;5072517;28;20476;-53
2023/07/04 05:16:26;;;;;;;0.60;0.60;;;;;;;22.87;100.00;95371.22;5072832;28;20445;-53
2023/07/04 05:18:54;;;;;;;0.70;0.63;;;;;;;22.94;100.00;95382.22;5073237;28;20939;-54
2023/07/04 05:21:24;;;;;;;1.33;1.23;;;;;;;22.74;100.00;95376.66;5072600;28;20452;-54
2023/07/04 05:23:53;;;;;;;0.77;0.77;;;;;;;22.75;100.00;95329.59;5072662;28;20444;-53
2023/07/04 05:26:23;;;;;;;0.70;0.60;;;;;;;23.05;100.00;95334.59;5072216;28;20554;-52
2023/07/04 05:28:55;;;;;;;0.80;0.67;;;;;;;23.12;100.00;95316.63;5072753;28;20446;-51
2023/07/04 05:31:25;;;;;;;0.60;0.50;;;;;;;23.35;100.00;95381.75;5058884;28;20488;-51
2023/07/04 05:33:55;;;;;;;2.30;0.73;;;;;;;22.91;100.00;95377.50;5072431;28;20438;-51
2023/07/04 05:36:25;;;;;;;1.37;1.27;;;;;;;23.19;100.00;95383.66;5071904;28;20445;-49
2023/07/04 05:38:55;;;;;;;0.60;0.60;;;;;;;23.52;100.00;95392.25;5072035;28;20499;-51
2023/07/04 05:41:26;;;;;;;0.80;0.80;;;;;;;23.61;100.00;95383.94;5059016;28;20475;-51
2023/07/04 05:43:57;;;;;;;0.60;0.50;;;;;;;24.11;100.00;95384.00;5072053;28;20437;-52
2023/07/04 05:46:25;;;;;;;0.60;0.60;;;;;;;24.43;100.00;95384.69;5072365;28;20477;-51
2023/07/04 05:48:54;;;;;;;0.67;0.67;;;;;;;24.35;100.00;95380.25;5072442;28;20516;-51
2023/07/04 05:51:23;;;;;;;5.57;0.70;;;;;;;24.01;100.00;95308.69;5072525;28;20484;-51
2023/07/04 05:53:53;;;;;;;3.43;1.37;;;;;;;24.31;96.28;95368.56;5072031;28;20495;-53
2023/07/04 05:56:22;;;;;;;1.17;1.07;;;;;;;24.59;100.00;95350.19;5071915;28;20459;-55
2023/07/04 05:58:52;;;;;;;0.77;0.77;;;;;;;24.78;100.00;95376.53;5072059;28;20442;-56
2023/07/04 06:01:25;;;;;;;1.80;1.07;;;;;;;24.89;91.93;95369.41;5072113;28;20520;-56
2023/07/04 06:03:54;;;;;;;1.37;1.27;;;;;;;24.84;94.30;95369.69;5072404;28;20433;-57
2023/07/04 06:06:25;;;;;;;1.17;1.07;;;;;;;24.80;97.27;95375.03;5068310;28;20484;-56
2023/07/04 06:08:55;;;;;;;5.60;1.30;;;;;;;24.64;100.00;95374.31;5072305;28;20430;-55
2023/07/04 06:11:26;;;;;;;0.90;0.90;;;;;;;24.90;95.58;95352.75;5072204;28;20452;-55
2023/07/04 06:13:55;;;;;;;0.70;0.70;;;;;;;24.94;95.52;95353.63;5071488;28;20477;-55
2023/07/04 06:16:25;;;;;;;2.73;0.73;;;;;;;25.41;95.06;95377.69;5071993;28;20450;-56
2023/07/04 06:18:53;;;;;;;1.00;0.83;;;;;;;25.58;93.44;95362.88;5071859;28;20479;-55
2023/07/04 06:21:23;;;;;;;1.50;1.40;;;;;;;25.98;90.73;95355.00;5071665;28;20437;-56
2023/07/04 06:24:09;;;;;;;0.70;0.70;;;;;;;26.13;90.05;95367.66;5071613;28;20934;-56
2023/07/04 06:26:38;;;;;;;1.73;1.03;;;;;;;25.93;89.39;95366.16;5071366;28;20481;-55
2023/07/04 06:29:06;;;;;;;2.50;1.20;;;;;;;26.11;90.24;95361.00;5071633;28;20950;-56
2023/07/04 06:31:41;;;;;;;1.60;0.87;;;;;;;26.28;87.11;95355.84;5071487;28;20445;-56
2023/07/04 06:34:11;;;;;;;0.50;0.50;;;;;;;26.54;87.18;95367.81;5071368;28;20445;-55
2023/07/04 06:36:40;;;;;;;13.50;1.03;;;;;;;26.72;86.36;95360.63;5071278;28;20517;-56
2023/07/04 06:39:09;;;;;;;1.00;1.00;;;;;;;26.40;89.44;95354.81;5071750;28;20437;-54
2023/07/04 06:41:37;;;;;;;1.10;1.10;;;;;;;26.46;88.95;95350.63;5071788;28;20849;-55
2023/07/04 06:44:06;;;;;;;0.80;0.80;;;;;;;26.83;87.48;95335.16;5071292;28;20958;-55
2023/07/04 06:46:36;;;;;;;1.87;1.77;;;;;;;26.42;86.55;95349.78;5071596;28;20487;-55
2023/07/04 06:49:05;;;;;;;2.10;2.00;;;;;;;26.27;85.71;95346.09;5071142;28;20437;-55
2023/07/04 06:51:33;;;;;;;7.10;2.00;;;;;;;26.83;85.66;95345.25;5070540;28;20437;-55
2023/07/04 06:54:02;;;;;;;1.87;1.30;;;;;;;27.54;83.37;95350.28;5071587;28;20495;-53
2023/07/04 06:56:31;;;;;;;1.33;1.23;;;;;;;27.48;79.17;95335.44;5070891;28;20476;-55
2023/07/04 06:58:59;;;;;;;1.47;1.03;;;;;;;27.29;78.11;95329.41;5071141;28;20434;-55
2023/07/04 07:01:28;;;;;;;2.77;1.80;;;;;;;26.56;79.22;95339.09;5071386;28;20433;-54
2023/07/04 07:03:59;;;;;;;2.70;2.13;;;;;;;26.58;79.40;95341.44;5071137;28;20469;-55
2023/07/04 07:06:28;;;;;;;1.90;1.80;;;;;;;26.47;78.95;95320.34;5071377;28;20847;-55
2023/07/04 07:08:57;;;;;;;1.23;1.00;;;;;;;27.28;77.54;95334.06;5070383;28;20438;-56
2023/07/04 07:11:25;;;;;;;3.40;1.30;;;;;;;27.34;75.69;95334.50;5071967;28;20972;-56
2023/07/04 07:13:54;;;;;;;1.23;0.90;;;;;;;27.76;76.83;95334.88;5074874;28;20516;-56
2023/07/04 07:16:25;;;;;;;3.10;1.33;;;;;;;28.03;74.00;95321.88;5075093;28;20449;-56
2023/07/04 07:18:55;;;;;;;1.30;0.70;;;;;;;28.33;72.71;95325.13;5075073;28;20442;-57
2023/07/04 07:21:26;;;;;;;0.40;0.40;;;;;;;29.24;69.81;95313.78;5074918;28;20494;-58
2023/07/04 07:23:55;;;;;;;3.83;1.40;;;;;;;28.17;69.49;95341.00;5074775;28;20792;-58
2023/07/04 07:26:26;;;;;;;2.73;1.93;;;;;;;28.33;69.83;95325.13;5074071;28;20473;-57
2023/07/04 07:28:56;;;;;;;0.93;0.87;;;;;;;29.37;67.27;95319.66;5074725;28;20434;-57
2023/07/04 07:31:27;;;;;;;1.33;1.30;;;;;;;28.47;68.64;95254.28;5074726;28;20994;-57
2023/07/04 07:34:05;;;;;;;2.33;2.13;;;;;;;28.02;67.43;95268.50;5074847;28;20524;-57
2023/07/04 07:36:37;;;;;;;1.73;1.00;;;;;;;28.92;66.16;95323.81;5073563;28;20449;-57
2023/07/04 07:39:09;;;;;;;1.40;1.30;;;;;;;28.75;65.47;95325.34;5074123;28;20514;-56
2023/07/04 07:41:40;;;;;;;3.90;0.70;;;;;;;29.65;63.21;95314.16;5074550;28;20850;-56
2023/07/04 07:44:09;;;;;;;1.30;0.80;;;;;;;29.55;64.24;95318.47;5074084;28;20440;-57
2023/07/04 07:46:38;;;;;;;2.37;0.90;;;;;;;29.78;63.19;95320.06;5074395;28;20526;-55
2023/07/04 07:49:06;;;;;;;1.07;0.73;;;;;;;30.59;61.60;95317.94;5073652;28;20441;-56
2023/07/04 07:51:38;;;;;;;1.57;0.80;;;;;;;30.55;60.77;95306.22;5074486;28;20504;-56
2023/07/04 07:54:08;;;;;;;1.07;0.93;;;;;;;30.72;58.98;95316.31;5074165;28;20528;-57
2023/07/04 07:56:41;;;;;;;1.37;0.77;;;;;;;31.03;58.08;95317.34;5074397;28;20449;-55
2023/07/04 07:59:09;;;;;;;0.93;0.90;;;;;;;30.56;56.74;95309.75;5074102;28;20444;-55
2023/07/04 08:01:38;;;;;;;0.97;0.97;;;;;;;30.94;58.65;95314.25;5074236;28;20438;-56
2023/07/04 08:04:07;;;;;;;1.17;1.07;;;;;;;30.45;61.27;95318.00;5073931;28;20448;-55
2023/07/04 08:06:39;;;;;;;0.90;0.90;;;;;;;30.20;62.26;95311.78;5074188;28;20536;-55
2023/07/04 08:09:10;;;;;;;0.97;0.97;;;;;;;30.82;59.77;95311.94;5074219;28;20445;-54
2023/07/04 08:11:39;;;;;;;0.70;0.70;;;;;;;31.04;57.12;95279.81;5074047;28;20972;-55
2023/07/04 08:14:08;;;;;;;1.27;1.17;;;;;;;30.95;56.58;95312.31;5073707;28;20824;-55
2023/07/04 08:16:43;;;;;;;0.67;0.67;;;;;;;31.00;57.61;95323.63;5073508;28;20452;-54
2023/07/04 08:19:13;;;;;;;1.37;1.27;;;;;;;31.10;58.76;95309.09;5073772;28;20487;-55
2023/07/04 08:21:43;;;;;;;1.53;1.43;;;;;;;31.26;59.13;95314.06;5073538;28;20441;-56
2023/07/04 08:24:12;;;;;;;1.50;1.40;;;;;;;31.53;58.67;95315.06;5072619;28;20845;-56
2023/07/04 08:26:44;;;;;;;1.10;1.03;;;;;;;31.41;58.10;95305.38;5073611;28;20437;-56
2023/07/04 08:29:13;;;;;;;2.90;0.87;;;;;;;30.99;58.39;95297.44;5073917;28;20452;-57
2023/07/04 08:31:41;;;;;;;4.53;2.00;;;;;;;31.44;58.73;95295.56;5073053;28;20503;-55
2023/07/04 08:34:11;;;;;;;1.20;1.10;;;;;;;31.17;59.33;95294.59;5073304;28;20441;-55
2023/07/04 08:36:41;;;;;;;0.80;0.80;;;;;;;31.48;59.41;95263.44;5073743;28;20433;-56
2023/07/04 08:39:11;;;;;;;0.70;0.70;;;;;;;32.23;54.32;95305.44;5073321;28;20808;-54
2023/07/04 08:41:44;;;;;;;1.40;1.30;;;;;;;31.80;51.97;95296.81;5047804;28;21002;-55
2023/07/04 08:44:16;;;;;;;0.90;0.70;;;;;;;31.98;52.67;95266.50;5073142;28;20448;-55
2023/07/04 08:46:47;;;;;;;1.47;1.37;;;;;;;32.55;51.39;95297.66;5073197;28;20445;-55
2023/07/04 08:49:39;;;;;;;0.50;0.50;;;;;;;32.51;51.24;95305.13;5059697;28;20436;-56
2023/07/04 08:52:14;;;;;;;0.93;0.93;;;;;;;33.70;49.93;95285.44;5070235;28;20468;-54
2023/07/04 08:54:45;;;;;;;1.60;0.77;;;;;;;33.74;48.22;95285.38;5073180;28;20494;-55
2023/07/04 08:57:30;;;;;;;0.97;0.97;;;;;;;33.56;49.66;95285.69;5073298;28;20804;-57
2023/07/04 09:00:05;;;;;;;2.00;1.90;;;;;;;33.28;50.82;95296.28;5073205;28;20444;-55
2023/07/04 09:03:15;;;;;;;0.80;0.80;;;;;;;33.17;49.94;95293.69;5071794;28;20891;-55
2023/07/04 09:05:50;;;;;;;0.80;0.80;;;;;;;32.77;51.53;95297.38;5061483;28;20449;-55
2023/07/04 09:08:28;;;;;;;1.20;0.50;;;;;;;33.67;52.31;95285.50;5073011;28;20842;-54
2023/07/04 09:11:03;;;;;;;1.50;1.43;;;;;;;32.89;50.61;95289.34;5073034;28;20449;-56
2023/07/04 09:13:36;;;;;;;1.57;0.77;;;;;;;33.20;52.82;95276.41;5072585;28;20429;-53
2023/07/04 09:16:08;;;;;;;1.53;1.43;;;;;;;33.13;51.18;95274.53;5072730;28;20441;-56
2023/07/04 09:18:43;;;;;;;1.10;1.00;;;;;;;33.30;52.05;95271.94;5072944;28;20490;-56
2023/07/04 09:21:15;;;;;;;1.23;0.70;;;;;;;33.51;52.48;95252.34;5072892;28;20497;-56
2023/07/04 09:23:45;;;;;;;0.67;0.67;;;;;;;33.93;50.91;95262.63;5047082;28;20856;-56
2023/07/04 09:26:18;;;;;;;2.77;0.70;;;;;;;32.62;54.45;95255.63;5073002;28;20523;-61
2023/07/04 09:28:51;;;;;;;1.10;1.07;;;;;;;32.65;52.37;95208.13;5072619;28;20473;-61
2023/07/04 09:31:23;;;;;;;0.80;0.80;;;;;;;32.37;53.60;95264.13;5072251;28;20467;-64
2023/07/04 09:33:53;;;;;;;1.03;0.60;;;;;;;33.15;52.81;95269.41;5072694;28;20490;-65
2023/07/04 09:36:26;;;;;;;0.53;0.50;;;;;;;33.57;53.19;95253.47;5071993;28;20510;-63
2023/07/04 09:38:59;;;;;;;0.50;0.40;;;;;;;34.34;52.74;95241.03;5072832;28;20448;-65
2023/07/04 09:41:31;;;;;;;1.73;0.80;;;;;;;35.17;48.79;95251.91;5070316;28;20445;-61
2023/07/04 09:44:13;;;;;;;0.80;0.80;;;;;;;33.79;49.89;95183.16;5072520;28;20928;-62
2023/07/04 09:46:48;;;;;;;0.90;0.90;;;;;;;33.79;50.36;95254.66;5072299;28;20444;-62
2023/07/04 09:49:24;;;;;;;1.03;0.93;;;;;;;33.61;54.32;95245.94;5072152;28;20567;-63
2023/07/04 09:52:01;;;;;;;1.17;1.10;;;;;;;34.01;54.32;95242.06;5072250;28;20509;-62
2023/07/04 09:54:31;;;;;;;1.00;0.90;;;;;;;33.94;54.74;95236.69;5046597;28;20465;-61
2023/07/04 10:00:16;;;;;;;0.87;0.87;;;;;;;34.13;51.62;95226.94;5109729;27;20690;-61
2023/07/04 10:02:45;;;;;;;1.10;0.73;;;;;;;34.36;52.18;95232.34;5109167;28;20454;-62
2023/07/04 10:05:28;;;;;;;1.33;1.23;;;;;;;34.46;52.03;95221.13;5109554;28;20955;-62
2023/07/04 10:08:06;;;;;;;0.70;0.70;;;;;;;33.94;51.56;95222.16;5109565;28;20197;-62
2023/07/04 10:10:37;;;;;;;1.93;1.00;;;;;;;33.61;51.63;95216.47;5108844;28;20438;-64
2023/07/04 10:13:08;;;;;;;1.67;1.57;;;;;;;33.93;51.18;95217.88;5109542;28;20442;-63
2023/07/04 10:15:41;;;;;;;1.50;1.00;;;;;;;33.75;51.02;95202.47;5082591;28;20989;-62
2023/07/04 10:18:24;;;;;;;0.70;0.70;;;;;;;34.46;50.47;95209.34;5109012;28;20501;-61
2023/07/04 10:20:55;;;;;;;1.27;1.20;;;;;;;34.84;48.80;95180.19;5108682;28;20492;-61
2023/07/04 10:23:26;;;;;;;2.70;2.30;;;;;;;34.60;50.15;95202.78;5109024;28;20962;-61
2023/07/04 10:25:56;;;;;;;0.83;0.77;;;;;;;35.67;48.91;95199.88;5109461;28;20869;-61
2023/07/04 10:28:27;;;;;;;0.80;0.80;;;;;;;36.49;46.35;95143.97;5109241;28;20503;-60
2023/07/04 10:31:00;;;;;;;1.97;1.87;;;;;;;34.72;47.98;95197.41;5108850;28;20197;-62
2023/07/04 10:33:37;;;;;;;1.00;0.93;;;;;;;35.61;48.04;95188.59;5108833;28;20242;-61
2023/07/04 10:36:10;;;;;;;0.63;0.63;;;;;;;35.32;50.23;95187.72;5108895;28;20205;-60
2023/07/04 10:38:42;;;;;;;0.60;0.60;;;;;;;35.67;47.66;95180.56;5109354;28;20217;-61
2023/07/04 10:41:23;;;;;;;0.70;0.70;;;;;;;36.50;46.67;95166.84;5109143;28;20237;-61
2023/07/04 10:43:57;;;;;;;1.47;1.37;;;;;;;36.26;45.97;95177.38;5108972;28;20193;-61
2023/07/04 10:46:31;;;;;;;0.73;0.73;;;;;;;35.65;46.10;95174.69;5108740;28;20265;-60
2023/07/04 10:49:04;;;;;;;2.45;0.80;;;;;;;36.12;45.54;95170.28;5108569;28;20197;-61
2023/07/04 10:51:37;;;;;;;1.73;1.63;;;;;;;35.45;46.43;95166.53;5108952;28;20194;-61
2023/07/04 10:54:10;;;;;;;0.50;0.40;;;;;;;35.82;48.28;95167.97;5108363;28;20189;-61
2023/07/04 10:56:41;;;;;;;0.60;0.60;;;;;;;36.24;45.27;95158.50;5108807;28;20284;-62
2023/07/04 10:59:16;;;;;;;1.00;1.00;;;;;;;37.11;45.97;95147.97;5108001;28;20264;-62
2023/07/04 11:01:51;;;;;;;0.73;0.55;;;;;;;37.66;43.46;95137.44;5108836;28;20215;-59
2023/07/04 11:04:25;;;;;;;0.50;0.50;;;;;;;38.30;40.52;95135.97;5108807;28;20201;-60
2023/07/04 11:06:59;;;;;;;0.80;0.75;;;;;;;36.41;41.76;95123.28;5108239;28;20204;-61
2023/07/04 11:09:34;;;;;;;0.70;0.70;;;;;;;36.25;43.46;95096.59;5104236;28;20208;-60
2023/07/04 11:12:05;;;;;;;0.45;0.45;;;;;;;36.24;44.01;95133.66;5094180;28;20185;-61
2023/07/04 11:14:39;;;;;;;0.95;0.95;;;;;;;36.28;43.05;95131.56;5094810;28;20259;-61
2023/07/04 11:17:13;;;;;;;0.70;0.70;;;;;;;36.18;43.54;95123.63;5094385;28;20702;-61
2023/07/04 11:19:56;;;;;;;0.93;0.93;;;;;;;36.45;41.60;95135.03;5081256;28;20271;-60
2023/07/04 11:22:45;;;;;;;0.60;0.60;;;;;;;36.20;42.53;95126.69;5094668;28;20361;-61
2023/07/04 11:25:30;;;;;;;1.75;0.68;;;;;;;36.75;42.46;95117.16;5094741;28;20620;-62
2023/07/04 11:28:25;;;;;;;0.80;0.73;;;;;;;35.92;43.64;95122.75;5094211;28;20251;-63
2023/07/04 11:31:07;;;;;;;1.73;0.90;;;;;;;35.38;43.07;95124.59;5094660;28;20284;-61
2023/07/04 11:33:40;;;;;;;1.00;0.75;;;;;;;35.87;42.52;95114.22;5071617;28;20190;-62
2023/07/04 11:36:17;;;;;;;0.88;0.73;;;;;;;36.28;42.49;95109.47;5093680;28;20243;-62
2023/07/04 11:38:52;;;;;;;1.43;1.33;;;;;;;36.11;43.72;95107.25;5094102;28;20689;-61
2023/07/04 11:41:34;;;;;;;0.60;0.60;;;;;;;34.78;44.14;95098.53;5093802;28;20197;-62
2023/07/04 11:44:13;;;;;;;1.85;1.15;;;;;;;35.26;44.38;95100.50;5094413;28;20229;-61
2023/07/04 11:46:44;;;;;;;1.17;1.03;;;;;;;33.53;46.13;95107.03;5094349;28;20554;-63
2023/07/04 11:49:21;;;;;;;1.33;1.23;;;;;;;32.70;48.71;95100.63;5090919;28;20230;-62
2023/07/04 11:51:50;;;;;;;0.97;0.97;;;;;;;32.24;49.74;95101.28;5084714;28;20197;-63